• Join FlightAware (Why Join?)
  • Login
  • US Flag 
04:33AM EDT


 

Airport Tracker/Info


-or-


 

Live Flight TrackerFlight Track Log ✈ EJA396 ✈ 19-Jun-2013 ✈ KBWI - KORF

Flight Track Log - Related Links

Times and Time Zones

All times are in EDT time to prevent confusion due to time zone crossing. See the EJA396 flight status page for this flight to view local times or setup timezone preferences in your user account.

Time Position Orientation Groundspeed Altitude Reporting Facility
EDT Latitude Longitude Course Direction KTS MPH feet Rate Location/Type
03:00PM 39.2000 -76.6833 252° West 198 228 2,500  Level Potomac TRACON
03:01PM 39.1833 -76.7500 252° West 255 293 4,400 2,040 Climbing Potomac TRACON
03:02PM 39.1167 -76.7167 159° South 268 308 6,600 2,280 Climbing Potomac TRACON
03:03PM 39.0500 -76.6333 136° Southeast 297 342 9,000 2,940 Climbing Potomac TRACON
03:04PM 39.0000 -76.5500 128° Southeast 336 387 12,600 1,380 Climbing Potomac TRACON
03:07PM 38.7892 -76.4653 163° South 332 382 13,900 360 Climbing Washington Center
03:08PM 38.7114 -76.5547 222° Southwest 319 367 14,000  Climbing Washington Center
03:09PM 38.6378 -76.6414 223° Southwest 337 388 14,000  Level Washington Center
03:10PM 38.5558 -76.7172 216° Southwest 353 406 14,000  Level Washington Center
03:11PM 38.4514 -76.7183 180° South 346 398 14,000  Level Washington Center
03:12PM 38.3433 -76.7008 173° South 367 422 14,000  Level Washington Center
03:13PM 38.2286 -76.6808 172° South 372 428 14,000  Level Washington Center
03:14PM 38.1247 -76.6661 174° South 372 428 14,000  Level Washington Center
03:15PM 38.0225 -76.6697 182° South 372 428 14,000  Level Washington Center
03:16PM 37.9181 -76.6789 184° South 372 428 14,000 -420 Level Washington Center
03:17PM 37.8183 -76.6381 162° South 363 418 13,200 -1,140 Descending Washington Center
03:18PM 37.7481 -76.5503 135° Southeast 380 437 11,800 -1,500 Descending Washington Center
03:19PM 37.6781 -76.4472 131° Southeast 360 414 10,300 -900 Descending Washington Center
03:20PM 37.6117 -76.3600 134° Southeast 358 412 10,000 -240 Descending Washington Center
03:21PM 37.5119 -76.3222 163° South 353 406 9,900 -240 Descending Washington Center
03:22PM 37.4119 -76.3056 172° South 302 348 9,600 -840 Descending Washington Center
03:23PM 37.3389 -76.2919 172° South 321 369 8,300 -1,500 Descending Washington Center
03:24PM 37.2619 -76.2756 170° South 301 346 6,800 -1,560 Descending Washington Center
03:25PM 37.1847 -76.2592 170° South 289 333 5,300 -900 Descending Washington Center
03:26PM 37.1078 -76.2456 172° South 289 333 5,000 -240 Descending Washington Center
03:27PM 37.0328 -76.2294 170° South 284 327 4,900 -600 Descending Washington Center
03:28PM 36.9408 -76.2417 186° South 254 292 3,700 -960 Descending Washington Center